createdAt,value
2018-12-16T00:02:13.479Z,19.70
2018-12-16T00:04:49.498Z,16.77
2018-12-16T00:07:12.059Z,19.37
2018-12-16T00:09:40.317Z,19.40
2018-12-16T00:12:08.511Z,17.32
2018-12-16T00:14:36.718Z,17.05
2018-12-16T00:17:04.973Z,16.02
2018-12-16T00:19:33.373Z,17.20
2018-12-16T00:22:01.460Z,16.12
2018-12-16T00:24:29.739Z,19.20
2018-12-16T00:27:10.032Z,21.60
2018-12-16T00:29:38.494Z,17.15
2018-12-16T00:32:06.645Z,15.53
2018-12-16T00:34:35.003Z,17.30
2018-12-16T00:37:03.208Z,18.23
2018-12-16T00:39:31.459Z,19.23
2018-12-16T00:41:59.601Z,17.35
2018-12-16T00:44:27.741Z,15.88
2018-12-16T00:46:55.956Z,16.05
2018-12-16T00:49:24.132Z,19.10
2018-12-16T00:51:52.265Z,19.10
2018-12-16T00:54:20.493Z,15.95
2018-12-16T00:56:48.686Z,16.23
2018-12-16T00:59:16.730Z,13.78
2018-12-16T01:01:44.858Z,16.82
2018-12-16T01:04:12.979Z,17.25
2018-12-16T01:06:41.171Z,17.65
2018-12-16T01:09:09.279Z,18.85
2018-12-16T01:11:37.463Z,17.27
2018-12-16T01:14:05.995Z,16.93
2018-12-16T01:16:34.273Z,17.65
2018-12-16T01:19:02.570Z,16.48
2018-12-16T01:21:30.720Z,17.98
2018-12-16T01:23:58.957Z,18.90
2018-12-16T01:26:27.078Z,19.67
2018-12-16T01:28:55.181Z,16.15
2018-12-16T01:31:23.353Z,19.00
2018-12-16T01:33:51.541Z,23.00
2018-12-16T01:36:19.691Z,19.98
2018-12-16T01:38:47.799Z,18.48
2018-12-16T01:41:15.854Z,17.62
2018-12-16T01:43:43.934Z,19.77
2018-12-16T01:46:11.974Z,20.08
2018-12-16T01:48:40.135Z,20.72
2018-12-16T01:51:08.122Z,16.37
2018-12-16T01:53:36.401Z,22.60
2018-12-16T01:56:04.575Z,18.30
2018-12-16T01:58:32.581Z,20.75
2018-12-16T02:01:00.824Z,18.73
2018-12-16T02:03:28.928Z,17.35
2018-12-16T02:05:57.086Z,21.42
2018-12-16T02:08:26.220Z,18.57
2018-12-16T02:10:54.443Z,18.45
2018-12-16T02:13:22.677Z,18.73
2018-12-16T02:15:50.714Z,22.82
2018-12-16T02:18:18.827Z,21.45
2018-12-16T02:20:46.974Z,16.32
2018-12-16T02:23:15.033Z,18.73
2018-12-16T02:25:43.276Z,19.20
2018-12-16T02:28:11.349Z,23.73
2018-12-16T02:30:39.431Z,23.32
2018-12-16T02:33:07.693Z,21.90
2018-12-16T02:35:35.747Z,22.15
2018-12-16T02:38:04.073Z,19.77
2018-12-16T02:40:32.303Z,28.95
2018-12-16T02:43:00.397Z,22.20
2018-12-16T02:45:28.524Z,21.42
2018-12-16T02:47:56.625Z,22.20
2018-12-16T02:50:24.728Z,21.90
2018-12-16T02:52:52.807Z,21.90
2018-12-16T02:55:20.964Z,20.90
2018-12-16T02:57:49.027Z,20.17
2018-12-16T03:00:17.153Z,20.52
2018-12-16T03:02:45.438Z,24.20
2018-12-16T03:05:13.559Z,26.65
2018-12-16T03:07:41.652Z,22.00
2018-12-16T03:10:09.847Z,18.60
2018-12-16T03:12:38.085Z,18.95
2018-12-16T03:15:06.526Z,20.95
2018-12-16T03:17:34.629Z,19.95
2018-12-16T03:20:03.003Z,20.43
2018-12-16T03:22:31.094Z,19.42
2018-12-16T03:24:59.187Z,20.25
2018-12-16T03:27:27.264Z,21.57
2018-12-16T03:29:55.303Z,23.65
2018-12-16T03:32:23.432Z,26.75
2018-12-16T03:34:51.625Z,19.75
2018-12-16T03:37:19.726Z,18.50
2018-12-16T03:39:47.799Z,18.37
2018-12-16T03:42:15.946Z,19.80
2018-12-16T03:44:50.649Z,23.98
2018-12-16T03:47:18.726Z,25.27
2018-12-16T03:49:46.983Z,23.00
2018-12-16T03:52:17.941Z,20.55
2018-12-16T03:54:46.014Z,22.35
2018-12-16T03:57:14.179Z,22.65
2018-12-16T03:59:49.842Z,20.12
2018-12-16T04:02:17.908Z,23.42
2018-12-16T04:04:46.067Z,22.30
2018-12-16T04:07:14.150Z,20.45
2018-12-16T04:09:42.213Z,20.00
2018-12-16T04:12:10.190Z,20.55
2018-12-16T04:14:38.213Z,22.50
2018-12-16T04:17:06.282Z,20.02
2018-12-16T04:19:34.300Z,22.07
2018-12-16T04:22:02.307Z,21.80
2018-12-16T04:24:30.340Z,16.12
2018-12-16T04:26:58.314Z,21.75
2018-12-16T04:29:26.342Z,22.62
2018-12-16T04:31:54.320Z,23.80
2018-12-16T04:34:22.326Z,23.50
2018-12-16T04:36:50.408Z,20.55
2018-12-16T04:39:18.514Z,23.15
2018-12-16T04:41:46.511Z,26.20
2018-12-16T04:44:14.504Z,24.15
2018-12-16T04:46:42.562Z,22.00
2018-12-16T04:49:10.600Z,23.22
2018-12-16T04:51:38.958Z,21.17
2018-12-16T04:54:07.111Z,23.62
2018-12-16T04:56:35.257Z,21.60
2018-12-16T04:59:03.465Z,21.70
2018-12-16T05:01:31.470Z,19.85
2018-12-16T05:03:59.583Z,20.00
2018-12-16T05:06:27.603Z,23.95
2018-12-16T05:08:55.690Z,21.70
2018-12-16T05:11:23.724Z,20.68
2018-12-16T05:13:51.634Z,23.02
2018-12-16T05:16:19.775Z,19.35
2018-12-16T05:18:47.863Z,22.30
2018-12-16T05:21:15.851Z,25.02
2018-12-16T05:23:43.890Z,23.05
2018-12-16T05:26:11.877Z,25.25
2018-12-16T05:28:39.874Z,23.18
2018-12-16T05:31:14.614Z,23.30
2018-12-16T05:33:42.588Z,20.97
2018-12-16T05:36:10.607Z,23.92
2018-12-16T05:38:38.692Z,27.70
2018-12-16T05:41:06.698Z,23.67
2018-12-16T05:43:34.638Z,27.98
2018-12-16T05:46:02.634Z,25.68
2018-12-16T05:48:30.607Z,25.85
2018-12-16T05:50:58.648Z,30.32
2018-12-16T05:53:26.711Z,29.77
2018-12-16T05:55:54.778Z,24.90
2018-12-16T05:58:22.794Z,31.77
2018-12-16T06:00:50.818Z,26.55
2018-12-16T06:03:18.871Z,36.63
2018-12-16T06:05:53.605Z,29.82
2018-12-16T06:08:21.572Z,32.10
2018-12-16T06:10:49.698Z,28.00
2018-12-16T06:13:17.729Z,31.23
2018-12-16T06:15:45.801Z,29.52
2018-12-16T06:18:13.868Z,25.37
2018-12-16T06:20:41.958Z,28.75
2018-12-16T06:23:09.945Z,30.00
2018-12-16T06:25:38.066Z,31.60
2018-12-16T06:28:06.185Z,31.73
2018-12-16T06:33:23.550Z,32.85
2018-12-16T06:35:51.617Z,31.97
2018-12-16T06:38:19.634Z,29.82
2018-12-16T06:40:47.825Z,33.42
2018-12-16T06:43:15.836Z,27.75
2018-12-16T06:45:43.974Z,31.12
2018-12-16T06:48:12.022Z,33.85
2018-12-16T06:50:40.049Z,34.13
2018-12-16T06:53:08.067Z,33.38
2018-12-16T06:55:36.093Z,30.65
2018-12-16T06:58:04.202Z,29.57
2018-12-16T07:00:32.559Z,32.60
2018-12-16T07:03:00.621Z,35.03
2018-12-16T07:05:28.653Z,36.53
2018-12-16T07:07:56.656Z,44.05
2018-12-16T07:10:24.837Z,40.23
2018-12-16T07:12:53.133Z,36.17
2018-12-16T07:15:21.311Z,38.53
2018-12-16T07:17:49.298Z,43.42
2018-12-16T07:20:17.342Z,38.50
2018-12-16T07:22:46.250Z,33.58
2018-12-16T07:25:15.414Z,37.98
2018-12-16T07:27:43.422Z,41.53
2018-12-16T07:30:11.770Z,42.03
2018-12-16T07:32:39.887Z,46.13
2018-12-16T07:35:08.534Z,35.28
2018-12-16T07:37:36.531Z,41.02
2018-12-16T07:40:05.353Z,40.05
2018-12-16T07:42:33.740Z,43.35
2018-12-16T07:45:02.295Z,36.77
2018-12-16T07:47:30.919Z,44.27
2018-12-16T07:49:59.103Z,45.90
2018-12-16T07:52:27.136Z,40.52
2018-12-16T07:54:55.220Z,41.70
2018-12-16T07:57:23.353Z,42.60
2018-12-16T07:59:51.624Z,46.08
2018-12-16T08:02:19.820Z,44.38
2018-12-16T08:04:47.917Z,40.85
2018-12-16T08:07:17.025Z,43.25
2018-12-16T08:09:45.562Z,39.03
2018-12-16T08:12:13.612Z,41.23
2018-12-16T08:14:41.761Z,37.80
2018-12-16T08:17:10.694Z,47.13
2018-12-16T08:19:38.815Z,40.50
2018-12-16T08:22:06.987Z,39.10
2018-12-16T08:24:35.142Z,38.60
2018-12-16T08:27:03.534Z,38.48
2018-12-16T08:29:31.603Z,38.60
2018-12-16T08:31:59.853Z,37.80
2018-12-16T08:34:27.938Z,36.17
2018-12-16T08:36:56.039Z,40.73
2018-12-16T08:39:24.130Z,42.50
2018-12-16T08:41:52.220Z,35.05
2018-12-16T08:44:20.267Z,39.80
2018-12-16T08:46:48.458Z,43.45
2018-12-16T08:49:16.559Z,37.70
2018-12-16T08:51:44.851Z,38.53
2018-12-16T08:54:13.079Z,43.33
2018-12-16T08:56:41.147Z,37.73
2018-12-16T08:59:09.182Z,38.23
2018-12-16T09:01:37.339Z,42.43
2018-12-16T09:04:05.604Z,38.60
2018-12-16T09:06:33.868Z,36.15
2018-12-16T09:09:02.099Z,40.03
2018-12-16T09:11:30.357Z,42.00
2018-12-16T09:13:58.542Z,44.45
2018-12-16T09:16:26.668Z,43.87
2018-12-16T09:18:54.760Z,39.58
2018-12-16T09:21:22.981Z,52.73
2018-12-16T09:23:51.232Z,44.95
2018-12-16T09:26:19.619Z,41.30
2018-12-16T09:28:47.751Z,40.85
2018-12-16T09:31:15.877Z,38.80
2018-12-16T09:33:44.208Z,38.02
2018-12-16T09:36:13.092Z,39.08
2018-12-16T09:38:41.397Z,38.60
2018-12-16T09:41:09.913Z,42.53
2018-12-16T09:43:37.985Z,40.08
2018-12-16T09:46:06.147Z,39.25
2018-12-16T09:48:34.294Z,41.13
2018-12-16T09:51:02.493Z,39.50
2018-12-16T09:53:30.705Z,38.48
2018-12-16T09:55:59.020Z,35.65
2018-12-16T09:58:27.298Z,46.53
2018-12-16T10:00:55.602Z,40.83
2018-12-16T10:03:23.953Z,44.27
2018-12-16T10:05:52.173Z,41.08
2018-12-16T10:08:20.599Z,42.13
2018-12-16T10:10:48.885Z,43.98
2018-12-16T10:13:16.999Z,41.10
2018-12-16T10:15:45.356Z,41.10
2018-12-16T10:18:13.703Z,42.78
2018-12-16T10:20:42.287Z,36.90
2018-12-16T10:23:10.469Z,37.58
2018-12-16T10:25:39.614Z,41.02
2018-12-16T10:28:07.819Z,41.15
2018-12-16T10:30:36.065Z,44.77
2018-12-16T10:33:04.328Z,35.98
2018-12-16T10:35:32.537Z,36.15
2018-12-16T10:38:00.714Z,41.73
2018-12-16T10:40:28.969Z,33.65
2018-12-16T10:42:57.114Z,35.08
2018-12-16T10:45:25.363Z,35.95
2018-12-16T10:47:53.587Z,39.58
2018-12-16T10:50:21.979Z,42.40
2018-12-16T10:52:50.186Z,38.73
2018-12-16T10:55:18.467Z,42.55
2018-12-16T10:57:46.642Z,43.05
2018-12-16T11:00:20.545Z,41.28
2018-12-16T11:02:48.811Z,40.33
2018-12-16T11:05:17.162Z,42.50
2018-12-16T11:07:45.598Z,35.83
2018-12-16T11:10:13.943Z,36.20
2018-12-16T11:12:42.753Z,37.50
2018-12-16T11:15:11.006Z,36.95
2018-12-16T11:17:39.223Z,42.73
2018-12-16T11:20:08.267Z,34.58
2018-12-16T11:22:36.593Z,41.68
2018-12-16T11:25:08.300Z,41.20
2018-12-16T11:27:36.580Z,34.30
2018-12-16T11:30:05.638Z,43.90
2018-12-16T11:32:34.054Z,42.95
2018-12-16T11:35:02.399Z,37.50
2018-12-16T11:37:30.704Z,42.58
2018-12-16T11:39:58.933Z,34.38
2018-12-16T11:42:27.137Z,43.68
2018-12-16T11:44:55.382Z,38.83
2018-12-16T11:47:23.728Z,38.20
2018-12-16T11:49:51.993Z,37.63
2018-12-16T11:52:20.307Z,37.80
2018-12-16T11:54:48.653Z,44.18
2018-12-16T11:57:16.828Z,43.55
2018-12-16T11:59:45.066Z,42.50
2018-12-16T12:02:13.410Z,42.88
2018-12-16T12:04:41.635Z,51.50
2018-12-16T12:07:09.876Z,41.45
2018-12-16T12:09:38.149Z,49.63
2018-12-16T12:12:06.454Z,42.70
2018-12-16T12:14:34.931Z,46.23
2018-12-16T12:17:03.302Z,42.00
2018-12-16T12:19:39.957Z,47.17
2018-12-16T12:22:08.708Z,45.28
2018-12-16T12:24:43.931Z,42.85
2018-12-16T12:27:12.187Z,48.75
2018-12-16T12:29:40.388Z,44.48
2018-12-16T12:32:10.263Z,43.78
2018-12-16T12:34:38.418Z,42.95
2018-12-16T12:37:06.688Z,43.98
2018-12-16T12:39:35.121Z,41.98
2018-12-16T12:42:03.544Z,44.80
2018-12-16T12:44:31.870Z,40.58
2018-12-16T12:47:00.100Z,42.15
2018-12-16T12:49:28.486Z,40.83
2018-12-16T12:51:56.640Z,39.40
2018-12-16T12:54:24.776Z,40.65
2018-12-16T12:56:53.079Z,41.30
2018-12-16T12:59:21.206Z,25.65
2018-12-16T13:01:49.496Z,45.20
2018-12-16T13:04:17.795Z,43.98
2018-12-16T13:06:46.069Z,39.18
2018-12-16T13:09:14.336Z,40.75
2018-12-16T13:11:42.680Z,36.05
2018-12-16T13:14:11.140Z,47.13
2018-12-16T13:16:39.383Z,42.38
2018-12-16T13:19:07.657Z,42.95
2018-12-16T13:21:35.868Z,38.58
2018-12-16T13:24:04.105Z,41.58
2018-12-16T13:26:33.063Z,42.60
2018-12-16T13:29:01.393Z,39.70
2018-12-16T13:31:29.588Z,50.25
2018-12-16T13:33:57.920Z,45.20
2018-12-16T13:36:26.183Z,47.45
2018-12-16T13:38:54.479Z,48.98
2018-12-16T13:41:23.123Z,51.50
2018-12-16T14:00:07.804Z,51.88
2018-12-16T14:02:36.272Z,53.05
2018-12-16T14:05:05.939Z,49.98
2018-12-16T14:07:34.185Z,48.85
2018-12-16T14:10:02.460Z,55.12
2018-12-16T14:12:30.799Z,53.92
2018-12-16T14:14:59.154Z,47.30
2018-12-16T14:17:27.452Z,51.00
2018-12-16T14:19:55.870Z,53.28
2018-12-16T14:22:24.181Z,52.80
2018-12-16T14:24:52.459Z,42.00
2018-12-16T14:27:20.838Z,51.90
2018-12-16T14:29:49.138Z,52.35
2018-12-16T14:32:17.522Z,59.40
2018-12-16T14:34:45.808Z,62.53
2018-12-16T14:37:14.170Z,52.62
2018-12-16T14:39:42.470Z,54.90
2018-12-16T14:42:10.839Z,48.05
2018-12-16T14:44:39.367Z,50.52
2018-12-16T14:47:07.624Z,50.38
2018-12-16T14:49:36.438Z,51.23
2018-12-16T14:52:04.810Z,59.75
2018-12-16T14:54:33.025Z,45.67
2018-12-16T14:57:01.409Z,53.10
2018-12-16T14:59:29.627Z,52.80
2018-12-16T15:01:57.882Z,52.62
2018-12-16T15:04:26.204Z,57.83
2018-12-16T15:06:54.640Z,60.03
2018-12-16T15:09:22.875Z,60.17
2018-12-16T15:11:51.136Z,51.30
2018-12-16T15:14:19.490Z,54.55
2018-12-16T15:16:47.781Z,50.85
2018-12-16T15:19:16.008Z,56.25
2018-12-16T15:21:44.157Z,60.40
2018-12-16T15:24:12.296Z,56.45
2018-12-16T15:26:40.729Z,52.43
2018-12-16T15:29:09.004Z,54.67
2018-12-16T15:31:37.216Z,63.63
2018-12-16T15:34:05.556Z,58.92
2018-12-16T15:36:33.821Z,56.92
2018-12-16T15:39:02.098Z,59.40
2018-12-16T15:41:30.427Z,53.00
2018-12-16T15:43:58.630Z,51.70
2018-12-16T15:46:26.838Z,45.83
2018-12-16T15:48:55.204Z,45.17
2018-12-16T15:51:23.687Z,45.43
2018-12-16T15:53:52.149Z,43.10
2018-12-16T15:56:21.717Z,37.58
2018-12-16T15:58:50.354Z,42.25
2018-12-16T16:01:22.133Z,45.98
2018-12-16T16:03:50.666Z,44.58
2018-12-16T16:06:18.929Z,48.35
2018-12-16T16:08:47.355Z,38.45
2018-12-16T16:11:15.689Z,42.00
2018-12-16T16:13:44.058Z,39.48
2018-12-16T16:16:12.311Z,45.92
2018-12-16T16:18:40.582Z,43.87
2018-12-16T16:21:08.792Z,46.23
2018-12-16T16:23:37.107Z,51.13
2018-12-16T16:26:05.248Z,38.53
2018-12-16T16:28:33.509Z,45.05
2018-12-16T16:31:01.688Z,46.15
2018-12-16T16:33:30.236Z,43.13
2018-12-16T16:35:58.600Z,39.27
2018-12-16T16:38:26.767Z,38.08
2018-12-16T16:40:55.251Z,41.05
2018-12-16T16:43:23.472Z,38.38
2018-12-16T16:45:51.935Z,40.20
2018-12-16T16:48:20.209Z,35.45
2018-12-16T16:50:48.491Z,35.50
2018-12-16T16:53:16.725Z,41.23
2018-12-16T16:55:44.961Z,37.13
2018-12-16T16:58:13.420Z,42.20
2018-12-16T17:00:41.660Z,36.95
2018-12-16T17:03:09.869Z,35.60
2018-12-16T17:05:38.169Z,41.15
2018-12-16T17:08:06.576Z,37.33
2018-12-16T17:10:34.834Z,38.10
2018-12-16T17:13:03.311Z,37.20
2018-12-16T17:15:31.570Z,40.40
2018-12-16T17:17:59.856Z,44.35
2018-12-16T17:20:28.169Z,40.43
2018-12-16T17:22:56.988Z,43.78
2018-12-16T17:25:25.286Z,40.15
2018-12-16T17:27:53.678Z,44.58
2018-12-16T17:30:21.946Z,39.67
2018-12-16T17:32:50.330Z,41.58
2018-12-16T17:35:18.674Z,39.05
2018-12-16T17:37:47.074Z,38.65
2018-12-16T17:40:15.394Z,46.73
2018-12-16T17:42:43.768Z,43.87
2018-12-16T17:45:11.975Z,41.95
2018-12-16T17:47:40.215Z,47.38
2018-12-16T17:50:09.232Z,36.45
2018-12-16T17:52:37.491Z,40.55
2018-12-16T17:55:06.207Z,38.73
2018-12-16T17:57:34.479Z,42.25
2018-12-16T18:00:03.145Z,39.23
2018-12-16T18:02:31.308Z,38.73
2018-12-16T18:04:59.679Z,42.15
2018-12-16T18:07:27.853Z,42.45
2018-12-16T18:09:56.207Z,40.83
2018-12-16T18:12:24.765Z,41.30
2018-12-16T18:14:53.009Z,41.80
2018-12-16T18:17:21.233Z,40.55
2018-12-16T18:19:49.565Z,43.45
2018-12-16T18:22:17.725Z,46.98
2018-12-16T18:24:45.933Z,49.23
2018-12-16T18:27:14.014Z,43.40
2018-12-16T18:29:42.597Z,48.17
2018-12-16T18:32:10.794Z,46.25
2018-12-16T18:34:38.982Z,56.90
2018-12-16T18:37:07.225Z,46.98
2018-12-16T18:39:35.463Z,50.52
2018-12-16T18:42:03.979Z,54.08
2018-12-16T18:44:32.347Z,48.58
2018-12-16T18:47:00.660Z,59.38
2018-12-16T18:49:28.902Z,50.00
2018-12-16T18:51:57.262Z,54.40
2018-12-16T18:54:25.547Z,52.75
2018-12-16T18:56:53.847Z,60.83
2018-12-16T18:59:22.061Z,59.15
2018-12-16T19:01:50.400Z,54.08
2018-12-16T19:07:11.794Z,60.45
2018-12-16T19:09:40.157Z,60.58
2018-12-16T19:12:08.483Z,54.15
2018-12-16T19:14:37.252Z,55.65
2018-12-16T19:17:12.173Z,49.65
2018-12-16T19:19:40.431Z,60.98
2018-12-16T19:22:08.656Z,57.27
2018-12-16T19:24:37.021Z,53.48
2018-12-16T19:27:05.251Z,54.45
2018-12-16T19:29:33.510Z,53.13
2018-12-16T19:32:01.740Z,61.25
2018-12-16T19:34:30.022Z,62.27
2018-12-16T19:36:58.268Z,54.27
2018-12-16T19:39:26.813Z,61.13
2018-12-16T19:41:55.213Z,61.73
2018-12-16T19:44:23.467Z,65.80
2018-12-16T19:46:51.745Z,63.00
2018-12-16T19:49:20.102Z,59.83
2018-12-16T19:51:48.407Z,68.75
2018-12-16T19:54:17.341Z,57.55
2018-12-16T19:56:45.727Z,57.48
2018-12-16T19:59:14.491Z,62.20
2018-12-16T20:01:42.894Z,67.75
2018-12-16T20:04:16.409Z,64.80
2018-12-16T20:06:47.320Z,59.55
2018-12-16T20:09:15.741Z,77.82
2018-12-16T20:11:44.077Z,59.27
2018-12-16T20:14:12.252Z,57.65
2018-12-16T20:16:40.607Z,63.35
2018-12-16T20:19:08.820Z,60.48
2018-12-16T20:21:37.136Z,63.05
2018-12-16T20:24:05.451Z,55.38
2018-12-16T20:26:33.643Z,58.30
2018-12-16T20:29:01.828Z,64.30
2018-12-16T20:31:30.076Z,67.37
2018-12-16T20:33:58.247Z,61.50
2018-12-16T20:36:26.536Z,62.80
2018-12-16T20:38:54.826Z,68.87
2018-12-16T20:41:23.058Z,67.92
2018-12-16T20:43:51.453Z,62.35
2018-12-16T20:46:19.567Z,64.17
2018-12-16T20:48:47.867Z,62.67
2018-12-16T20:51:16.628Z,62.20
2018-12-16T20:53:45.034Z,67.75
2018-12-16T20:56:13.569Z,72.82
2018-12-16T20:58:42.046Z,65.97
2018-12-16T21:01:11.163Z,62.20
2018-12-16T21:03:40.085Z,65.70
2018-12-16T21:06:08.372Z,68.33
2018-12-16T21:08:37.455Z,66.42
2018-12-16T21:11:11.624Z,72.25
2018-12-16T21:13:45.557Z,63.90
2018-12-16T21:16:19.628Z,62.33
2018-12-16T21:18:48.265Z,65.37
2018-12-16T21:21:16.765Z,61.77
2018-12-16T21:23:44.976Z,59.48
2018-12-16T21:26:13.251Z,57.75
2018-12-16T21:28:41.497Z,60.00
2018-12-16T21:31:09.736Z,68.35
2018-12-16T21:33:37.913Z,61.25
2018-12-16T21:36:06.225Z,61.45
2018-12-16T21:38:34.497Z,62.73
2018-12-16T21:41:02.638Z,72.97
2018-12-16T21:43:30.778Z,62.62
2018-12-16T21:45:58.884Z,55.58
2018-12-16T21:48:27.065Z,62.78
2018-12-16T21:50:55.213Z,50.45
2018-12-16T21:53:23.378Z,54.75
2018-12-16T21:55:51.640Z,54.15
2018-12-16T21:58:19.764Z,53.73
2018-12-16T22:00:48.025Z,55.50
2018-12-16T22:03:16.288Z,49.88
2018-12-16T22:05:45.177Z,65.52
2018-12-16T22:08:13.329Z,54.18
2018-12-16T22:10:41.606Z,57.65
2018-12-16T22:13:09.791Z,59.90
2018-12-16T22:15:37.964Z,62.40
2018-12-16T22:18:06.135Z,61.73
2018-12-16T22:20:34.448Z,56.58
2018-12-16T22:23:02.751Z,60.83
2018-12-16T22:25:30.940Z,59.53
2018-12-16T22:27:59.149Z,56.60
2018-12-16T22:30:27.352Z,56.13
2018-12-16T22:32:55.490Z,55.85
2018-12-16T22:35:23.738Z,63.87
2018-12-16T22:37:51.972Z,58.05
2018-12-16T22:40:20.602Z,61.80
2018-12-16T22:42:48.883Z,64.87
2018-12-16T22:45:17.147Z,61.65
2018-12-16T22:47:45.457Z,56.10
2018-12-16T22:50:13.846Z,63.45
2018-12-16T22:52:42.046Z,65.28
2018-12-16T22:55:10.215Z,58.48
2018-12-16T22:57:38.453Z,61.40
2018-12-16T23:00:13.198Z,63.17
2018-12-16T23:02:41.444Z,59.33
2018-12-16T23:05:09.758Z,59.50
2018-12-16T23:07:37.919Z,66.72
2018-12-16T23:10:06.343Z,65.50
2018-12-16T23:12:34.798Z,65.65
2018-12-16T23:15:03.296Z,64.00
2018-12-16T23:17:31.421Z,75.32
2018-12-16T23:20:05.198Z,62.03
2018-12-16T23:22:33.312Z,65.65
2018-12-16T23:27:54.132Z,70.60
2018-12-16T23:30:19.138Z,75.28
2018-12-16T23:32:47.257Z,68.35
2018-12-16T23:35:15.774Z,65.55
2018-12-16T23:37:44.286Z,70.80
2018-12-16T23:40:12.870Z,71.77
2018-12-16T23:42:40.898Z,70.28
2018-12-16T23:45:09.686Z,62.15
2018-12-16T23:47:38.326Z,71.55
2018-12-16T23:50:06.980Z,69.60
2018-12-16T23:52:35.055Z,67.45
2018-12-16T23:55:03.484Z,63.75
2018-12-16T23:57:31.795Z,67.80
